Terminal Aerodrome Forecast
Issued by NWS Tampa Bay Area, FL

Home | Current Version | Previous Version | Text Only | Print | Product List | Glossary On
Versions: 1 2 3 4 5 6 7 8 9 10 11 12 13 14 15 16 17
000
FTUS42 KTBW 150500 RRA
TAFFMY
TAF
KFMY 150541Z 1506/1606 VRB03KT P6SM FEW020 SCT120
     FM151400 11006KT P6SM SCT025 SCT120
     FM151700 10006KT P6SM SCT040 SCT120
     FM152000 09006KT P6SM VCTS SCT030 BKN050CB
     FM160200 VRB03KT P6SM SCT050 SCT250
     FM160400 VRB03KT P6SM SCT250=

USA.gov is the U.S. government's official web portal to all federal, state and local government web resources and services.